createdAt,value
2023-03-03T00:00:27.989Z,0.61
2023-03-03T00:03:07.180Z,0.73
2023-03-03T00:05:40.652Z,0.80
2023-03-03T00:08:13.642Z,0.78
2023-03-03T00:10:47.093Z,0.94
2023-03-03T00:13:22.846Z,0.51
2023-03-03T00:16:06.973Z,0.51
2023-03-03T00:18:43.732Z,-0.01
2023-03-03T00:21:26.591Z,0.50
2023-03-03T00:24:16.292Z,0.59
2023-03-03T00:26:50.482Z,0.70
2023-03-03T00:29:36.479Z,0.54
2023-03-03T00:32:26.113Z,0.28
2023-03-03T00:35:18.625Z,0.03
2023-03-03T00:37:56.199Z,-0.19
2023-03-03T00:40:34.360Z,-0.12
2023-03-03T00:43:19.378Z,-0.87
2023-03-03T00:45:53.760Z,-0.26
2023-03-03T00:48:29.836Z,0.32
2023-03-03T00:51:21.035Z,0.18
2023-03-03T00:53:53.824Z,-0.09
2023-03-03T00:56:27.380Z,-0.14
2023-03-03T00:59:00.325Z,0.00
2023-03-03T01:01:35.296Z,-0.72
2023-03-03T01:04:08.406Z,-0.03
2023-03-03T01:06:42.813Z,0.20
2023-03-03T01:09:15.557Z,0.24
2023-03-03T01:11:48.778Z,-0.39
2023-03-03T01:14:22.300Z,-0.42
2023-03-03T01:16:55.463Z,-0.30
2023-03-03T01:19:28.633Z,-0.34
2023-03-03T01:22:02.936Z,-0.35
2023-03-03T01:24:35.928Z,-0.39
2023-03-03T01:27:08.818Z,-0.54
2023-03-03T01:29:41.782Z,-0.91
2023-03-03T01:32:14.740Z,-1.19
2023-03-03T01:34:48.543Z,-1.21
2023-03-03T01:37:22.820Z,-1.47
2023-03-03T01:39:56.462Z,-1.19
2023-03-03T01:42:30.074Z,-0.78
2023-03-03T01:45:15.480Z,-0.51
2023-03-03T01:47:52.889Z,-0.86
2023-03-03T01:50:37.040Z,-0.86
2023-03-03T01:53:17.022Z,-0.49
2023-03-03T01:55:52.977Z,-0.55
2023-03-03T01:58:29.401Z,-1.49
2023-03-03T02:01:06.989Z,-1.34
2023-03-03T02:03:40.702Z,-1.45
2023-03-03T02:06:17.137Z,-1.98
2023-03-03T02:08:58.355Z,-1.87
2023-03-03T02:11:35.879Z,-2.01
2023-03-03T02:14:08.849Z,-2.19
2023-03-03T02:16:42.484Z,-2.38
2023-03-03T02:19:25.436Z,-2.35
2023-03-03T02:21:59.259Z,-2.00
2023-03-03T02:24:40.829Z,-1.33
2023-03-03T02:27:15.296Z,-1.38
2023-03-03T02:29:49.813Z,-0.97
2023-03-03T02:32:22.859Z,-1.47
2023-03-03T02:34:55.794Z,-1.00
2023-03-03T02:37:30.365Z,-1.20
2023-03-03T02:40:04.641Z,-2.12
2023-03-03T02:42:38.907Z,-1.46
2023-03-03T02:45:11.814Z,-1.28
2023-03-03T02:47:50.426Z,-1.69
2023-03-03T02:50:24.518Z,-0.97
2023-03-03T02:52:58.068Z,-1.03
2023-03-03T02:55:31.024Z,-1.19
2023-03-03T02:58:05.253Z,-1.95
2023-03-03T03:00:38.125Z,-2.48
2023-03-03T03:03:11.139Z,-2.62
2023-03-03T03:05:45.255Z,-2.64
2023-03-03T03:08:18.366Z,-2.44
2023-03-03T03:10:51.860Z,-2.49
2023-03-03T03:13:26.917Z,-2.27
2023-03-03T03:16:00.572Z,-2.17
2023-03-03T03:18:33.369Z,-2.67
2023-03-03T03:21:08.993Z,-2.14
2023-03-03T03:23:42.600Z,-2.63
2023-03-03T03:26:17.899Z,-2.13
2023-03-03T03:28:52.895Z,-2.42
2023-03-03T03:31:25.914Z,-1.97
2023-03-03T03:34:00.632Z,-1.94
2023-03-03T03:36:35.134Z,-2.05
2023-03-03T03:39:08.108Z,-1.65
2023-03-03T03:41:43.892Z,-1.64
2023-03-03T03:44:18.200Z,-2.21
2023-03-03T03:46:51.325Z,-1.92
2023-03-03T03:49:25.023Z,-1.51
2023-03-03T03:51:59.798Z,-2.84
2023-03-03T03:54:36.220Z,-3.18
2023-03-03T03:57:09.229Z,-3.25
2023-03-03T03:59:43.807Z,-3.29
2023-03-03T04:02:17.711Z,-3.33
2023-03-03T04:04:51.606Z,-3.27
2023-03-03T04:07:24.799Z,-2.38
2023-03-03T04:09:58.341Z,-2.14
2023-03-03T04:12:36.109Z,-1.87
2023-03-03T04:15:12.883Z,-1.99
2023-03-03T04:17:46.021Z,-1.89
2023-03-03T04:20:19.264Z,-2.11
2023-03-03T04:22:52.696Z,-1.93
2023-03-03T04:25:25.955Z,-2.41
2023-03-03T04:28:00.123Z,-3.06
2023-03-03T04:30:34.356Z,-2.45
2023-03-03T04:33:07.506Z,-2.23
2023-03-03T04:35:41.200Z,-3.07
2023-03-03T04:38:14.540Z,-2.66
2023-03-03T04:40:48.088Z,-2.68
2023-03-03T04:43:23.183Z,-3.30
2023-03-03T04:45:57.856Z,-3.24
2023-03-03T04:48:31.019Z,-3.28
2023-03-03T04:51:04.024Z,-2.46
2023-03-03T04:53:39.812Z,-2.28
2023-03-03T04:56:14.777Z,-2.10
2023-03-03T04:58:47.907Z,-2.60
2023-03-03T05:01:22.834Z,-2.12
2023-03-03T05:03:56.450Z,-2.16
2023-03-03T05:06:29.969Z,-2.92
2023-03-03T05:09:03.871Z,-2.72
2023-03-03T05:11:37.076Z,-2.25
2023-03-03T05:14:09.946Z,-2.02
2023-03-03T05:16:44.853Z,-2.95
2023-03-03T05:19:17.840Z,-2.99
2023-03-03T05:21:50.933Z,-2.63
2023-03-03T05:24:24.132Z,-3.32
2023-03-03T05:26:57.122Z,-3.29
2023-03-03T05:29:31.922Z,-3.55
2023-03-03T05:32:06.439Z,-3.80
2023-03-03T05:34:39.610Z,-3.48
2023-03-03T05:37:12.474Z,-3.71
2023-03-03T05:39:45.514Z,-3.15
2023-03-03T05:42:18.488Z,-3.08
2023-03-03T05:44:51.492Z,-3.21
2023-03-03T05:47:26.038Z,-3.16
2023-03-03T05:49:58.925Z,-2.72
2023-03-03T05:52:32.094Z,-2.52
2023-03-03T05:55:05.355Z,-2.73
2023-03-03T05:57:38.246Z,-2.59
2023-03-03T06:00:13.058Z,-3.30
2023-03-03T06:02:47.640Z,-3.69
2023-03-03T06:05:20.706Z,-3.28
2023-03-03T06:07:54.026Z,-3.31
2023-03-03T06:10:26.882Z,-3.68
2023-03-03T06:13:02.751Z,-3.81
2023-03-03T06:15:35.596Z,-3.64
2023-03-03T06:18:09.856Z,-3.99
2023-03-03T06:20:42.712Z,-3.97
2023-03-03T06:23:15.862Z,-4.14
2023-03-03T06:25:48.864Z,-3.91
2023-03-03T06:28:21.779Z,-3.38
2023-03-03T06:30:55.629Z,-3.74
2023-03-03T06:33:29.807Z,-3.70
2023-03-03T06:36:05.407Z,-3.28
2023-03-03T06:38:38.769Z,-3.39
2023-03-03T06:41:12.730Z,-2.97
2023-03-03T06:43:46.500Z,-3.49
2023-03-03T06:46:19.628Z,-2.98
2023-03-03T06:48:54.248Z,-2.61
2023-03-03T06:51:35.853Z,-2.85
2023-03-03T06:54:14.153Z,-2.51
2023-03-03T06:56:48.374Z,-2.44
2023-03-03T06:59:22.876Z,-1.95
2023-03-03T07:01:56.206Z,-2.19
2023-03-03T07:04:33.858Z,-2.43
2023-03-03T07:07:16.292Z,-2.63
2023-03-03T07:09:53.849Z,-2.73
2023-03-03T07:12:30.385Z,-2.72
2023-03-03T07:15:16.391Z,-2.71
2023-03-03T07:17:51.386Z,-2.21
2023-03-03T07:20:31.037Z,-2.00
2023-03-03T07:23:19.809Z,-2.08
2023-03-03T07:25:53.914Z,-1.94
2023-03-03T07:28:28.572Z,-1.74
2023-03-03T07:31:01.373Z,-1.29
2023-03-03T07:33:37.610Z,-0.95
2023-03-03T07:36:27.359Z,-0.85
2023-03-03T07:39:02.279Z,-0.69
2023-03-03T07:41:36.369Z,-0.57
2023-03-03T07:44:19.075Z,-1.07
2023-03-03T07:46:52.765Z,-0.94
2023-03-03T07:49:35.127Z,-0.61
2023-03-03T07:52:24.768Z,-0.13
2023-03-03T07:55:00.048Z,-0.31
2023-03-03T07:57:38.054Z,0.08
2023-03-03T08:00:44.441Z,0.39
2023-03-03T08:03:20.473Z,0.25
2023-03-03T08:05:53.464Z,0.14
2023-03-03T08:08:31.800Z,0.50
2023-03-03T08:11:05.939Z,0.46
2023-03-03T08:13:39.961Z,0.54
2023-03-03T08:16:36.353Z,0.81
2023-03-03T08:19:12.581Z,1.22
2023-03-03T08:21:45.410Z,1.67
2023-03-03T08:24:19.890Z,1.79
2023-03-03T08:26:53.269Z,2.11
2023-03-03T08:29:26.380Z,2.21
2023-03-03T08:31:59.441Z,2.23
2023-03-03T08:34:32.522Z,2.32
2023-03-03T08:37:05.847Z,2.54
2023-03-03T08:39:40.091Z,2.93
2023-03-03T08:42:15.241Z,3.05
2023-03-03T08:44:48.971Z,3.21
2023-03-03T08:47:21.849Z,3.26
2023-03-03T08:49:55.468Z,3.63
2023-03-03T08:52:28.283Z,3.73
2023-03-03T08:55:02.656Z,3.88
2023-03-03T08:57:35.494Z,4.10
2023-03-03T09:00:12.211Z,4.38
2023-03-03T09:02:45.070Z,4.57
2023-03-03T09:05:18.776Z,4.43
2023-03-03T09:07:52.758Z,4.62
2023-03-03T09:10:30.835Z,4.56
2023-03-03T09:13:09.504Z,4.72
2023-03-03T09:15:42.893Z,4.98
2023-03-03T09:18:18.858Z,5.10
2023-03-03T09:20:53.201Z,5.09
2023-03-03T09:23:35.737Z,5.38
2023-03-03T09:26:41.316Z,5.44
2023-03-03T09:29:25.859Z,5.72
2023-03-03T09:32:02.622Z,5.59
2023-03-03T09:34:41.199Z,5.91
2023-03-03T09:37:23.078Z,5.64
2023-03-03T09:39:57.739Z,5.84
2023-03-03T09:42:54.896Z,6.26
2023-03-03T09:45:52.996Z,6.71
2023-03-03T09:48:40.504Z,6.67
2023-03-03T09:51:25.480Z,6.81
2023-03-03T09:54:18.015Z,7.24
2023-03-03T09:56:55.716Z,7.28
2023-03-03T09:59:42.655Z,7.08
2023-03-03T10:02:34.593Z,7.42
2023-03-03T10:05:20.464Z,8.03
2023-03-03T10:08:04.498Z,8.04
2023-03-03T10:10:54.555Z,8.26
2023-03-03T10:13:40.645Z,8.05
2023-03-03T10:16:38.879Z,7.83
2023-03-03T10:19:50.034Z,8.43
2023-03-03T10:22:31.668Z,8.57
2023-03-03T10:25:21.930Z,8.52
2023-03-03T10:28:21.016Z,9.08
2023-03-03T10:31:12.177Z,8.73
2023-03-03T10:33:57.980Z,8.98
2023-03-03T10:36:46.621Z,9.25
2023-03-03T10:39:37.257Z,8.79
2023-03-03T10:42:31.576Z,9.17
2023-03-03T10:45:20.835Z,8.62
2023-03-03T10:48:11.596Z,9.37
2023-03-03T10:50:59.129Z,9.64
2023-03-03T10:53:35.768Z,9.73
2023-03-03T10:56:23.601Z,10.06
2023-03-03T10:59:07.999Z,10.42
2023-03-03T11:01:50.601Z,10.04
2023-03-03T11:04:47.546Z,10.08
2023-03-03T11:07:27.688Z,10.27
2023-03-03T11:10:26.160Z,10.25
2023-03-03T11:13:11.440Z,9.99
2023-03-03T11:16:07.423Z,10.33
2023-03-03T11:18:53.997Z,10.40
2023-03-03T11:21:34.351Z,10.85
2023-03-03T11:24:38.502Z,11.08
2023-03-03T11:27:22.647Z,10.63
2023-03-03T11:30:18.838Z,10.36
2023-03-03T11:33:00.464Z,10.52
2023-03-03T11:35:39.417Z,10.91
2023-03-03T11:38:25.907Z,10.77
2023-03-03T11:41:04.916Z,11.06
2023-03-03T11:43:43.447Z,11.59
2023-03-03T11:46:20.747Z,11.50
2023-03-03T11:48:59.792Z,11.14
2023-03-03T11:51:43.622Z,11.40
2023-03-03T11:54:23.013Z,11.42
2023-03-03T11:57:11.943Z,11.65
2023-03-03T12:00:04.484Z,11.20
2023-03-03T12:03:03.801Z,11.24
2023-03-03T12:05:48.715Z,11.06
2023-03-03T12:08:36.312Z,11.11
2023-03-03T12:11:18.072Z,11.04
2023-03-03T12:13:59.250Z,10.92
2023-03-03T12:16:47.593Z,11.79
2023-03-03T12:19:30.209Z,11.88
2023-03-03T12:22:30.786Z,11.96
2023-03-03T12:25:10.435Z,11.03
2023-03-03T12:27:49.999Z,11.57
2023-03-03T12:30:41.184Z,11.43
2023-03-03T12:33:23.790Z,11.77
2023-03-03T12:36:10.828Z,11.48
2023-03-03T12:38:57.280Z,11.96
2023-03-03T12:41:37.159Z,11.39
2023-03-03T12:44:19.332Z,11.54
2023-03-03T12:47:01.954Z,11.95
2023-03-03T12:49:52.007Z,11.56
2023-03-03T12:52:33.183Z,11.52
2023-03-03T12:55:18.502Z,12.27
2023-03-03T12:57:59.946Z,11.66
2023-03-03T13:00:44.989Z,11.97
2023-03-03T13:03:33.527Z,11.27
2023-03-03T13:06:12.328Z,11.50
2023-03-03T13:08:57.696Z,12.35
2023-03-03T13:11:47.053Z,12.36
2023-03-03T13:14:29.426Z,12.93
2023-03-03T13:17:11.700Z,12.66
2023-03-03T13:19:52.478Z,12.19
2023-03-03T13:22:42.908Z,12.60
2023-03-03T13:25:32.733Z,12.76
2023-03-03T13:28:12.825Z,12.87
2023-03-03T13:30:50.070Z,13.10
2023-03-03T13:33:28.120Z,12.78
2023-03-03T13:36:04.975Z,12.89
2023-03-03T13:38:42.601Z,13.34
2023-03-03T13:41:22.026Z,13.16
2023-03-03T13:44:02.138Z,12.13
2023-03-03T13:46:41.932Z,13.36
2023-03-03T13:49:33.496Z,13.40
2023-03-03T13:52:11.703Z,13.06
2023-03-03T13:54:58.603Z,12.88
2023-03-03T13:57:51.851Z,13.48
2023-03-03T14:00:34.095Z,13.26
2023-03-03T14:03:26.836Z,13.49
2023-03-03T14:06:04.383Z,13.20
2023-03-03T14:08:49.557Z,13.38
2023-03-03T14:11:28.853Z,12.95
2023-03-03T14:14:13.707Z,13.05
2023-03-03T14:16:53.092Z,12.61
2023-03-03T14:19:30.934Z,13.14
2023-03-03T14:22:23.774Z,12.98
2023-03-03T14:25:03.088Z,13.43
2023-03-03T14:27:39.288Z,12.96
2023-03-03T14:30:31.751Z,13.03
2023-03-03T14:33:20.785Z,12.89
2023-03-03T14:36:04.072Z,13.26
2023-03-03T14:38:44.435Z,13.09
2023-03-03T14:41:21.232Z,12.47
2023-03-03T14:43:59.762Z,12.93
2023-03-03T14:46:38.327Z,12.93
2023-03-03T14:49:16.753Z,13.08
2023-03-03T14:51:51.174Z,12.91
2023-03-03T14:54:29.327Z,13.17
2023-03-03T14:57:13.667Z,12.64
2023-03-03T14:59:58.700Z,12.63
2023-03-03T15:02:36.670Z,12.60
2023-03-03T15:05:22.809Z,12.45
2023-03-03T15:07:57.984Z,12.45
2023-03-03T15:10:34.111Z,12.42
2023-03-03T15:13:34.186Z,12.63
2023-03-03T15:16:13.027Z,12.27
2023-03-03T15:19:14.702Z,12.09
2023-03-03T15:21:58.509Z,12.11
2023-03-03T15:24:40.300Z,12.39
2023-03-03T15:27:22.267Z,12.30
2023-03-03T15:30:06.297Z,12.11
2023-03-03T15:32:48.507Z,12.11
2023-03-03T15:35:37.898Z,11.73
2023-03-03T15:38:29.557Z,12.51
2023-03-03T15:41:16.365Z,12.32
2023-03-03T15:43:59.348Z,12.32
2023-03-03T15:46:46.205Z,12.00
2023-03-03T15:49:38.376Z,12.12
2023-03-03T15:52:25.147Z,12.13
2023-03-03T15:55:09.793Z,12.01
2023-03-03T15:57:57.454Z,12.09
2023-03-03T16:00:40.280Z,11.55
2023-03-03T16:03:20.781Z,11.13
2023-03-03T16:05:54.684Z,10.93
2023-03-03T16:08:37.817Z,10.76
2023-03-03T16:11:17.049Z,11.03
2023-03-03T16:14:01.827Z,10.88
2023-03-03T16:16:52.070Z,10.62
2023-03-03T16:19:38.742Z,10.65
2023-03-03T16:22:25.781Z,10.57
2023-03-03T16:25:15.995Z,10.46
2023-03-03T16:27:55.916Z,10.49
2023-03-03T16:30:33.967Z,10.19
2023-03-03T16:33:22.310Z,10.03
2023-03-03T16:36:04.612Z,10.06
2023-03-03T16:38:41.025Z,10.20
2023-03-03T16:41:20.682Z,10.07
2023-03-03T16:44:04.861Z,10.35
2023-03-03T16:46:42.479Z,10.38
2023-03-03T16:49:23.109Z,10.23
2023-03-03T16:52:04.402Z,10.37
2023-03-03T16:54:45.177Z,9.85
2023-03-03T16:57:26.854Z,9.33
2023-03-03T17:00:06.655Z,8.79
2023-03-03T17:03:06.017Z,8.48
2023-03-03T17:05:49.948Z,8.24
2023-03-03T17:08:42.533Z,7.91
2023-03-03T17:11:26.219Z,7.71
2023-03-03T17:14:19.858Z,7.59
2023-03-03T17:17:00.194Z,7.45
2023-03-03T17:19:48.602Z,7.28
2023-03-03T17:22:30.529Z,7.23
2023-03-03T17:25:14.660Z,7.12
2023-03-03T17:28:10.552Z,6.99
2023-03-03T17:30:50.365Z,6.99
2023-03-03T17:33:37.678Z,6.98
2023-03-03T17:36:26.351Z,6.80
2023-03-03T17:39:13.588Z,6.88
2023-03-03T17:41:54.976Z,6.60
2023-03-03T17:44:39.026Z,5.80
2023-03-03T17:47:20.624Z,5.83
2023-03-03T17:50:10.633Z,5.84
2023-03-03T17:53:02.892Z,6.01
2023-03-03T17:56:03.505Z,5.47
2023-03-03T17:58:49.914Z,5.88
2023-03-03T18:01:31.680Z,4.89
2023-03-03T18:04:55.271Z,4.75
2023-03-03T18:07:39.762Z,4.66
2023-03-03T18:10:42.104Z,4.57
2023-03-03T18:13:35.200Z,4.43
2023-03-03T18:16:20.368Z,4.44
2023-03-03T18:19:09.501Z,4.24
2023-03-03T18:21:53.202Z,3.79
2023-03-03T18:24:38.491Z,4.67
2023-03-03T18:27:30.040Z,4.44
2023-03-03T18:30:25.036Z,3.98
2023-03-03T18:33:08.499Z,4.70
2023-03-03T18:35:44.035Z,4.40
2023-03-03T18:38:32.325Z,4.50
2023-03-03T18:41:06.507Z,4.50
2023-03-03T18:43:56.092Z,4.23
2023-03-03T18:46:53.889Z,3.93
2023-03-03T18:49:52.566Z,4.15
2023-03-03T18:52:28.839Z,3.97
2023-03-03T18:55:27.015Z,3.94
2023-03-03T18:58:29.047Z,3.75
2023-03-03T19:01:37.856Z,3.58
2023-03-03T19:04:21.525Z,3.72
2023-03-03T19:07:16.961Z,3.71
2023-03-03T19:09:57.364Z,3.43
2023-03-03T19:12:52.751Z,3.57
2023-03-03T19:15:47.434Z,3.41
2023-03-03T19:18:23.890Z,3.23
2023-03-03T19:21:00.666Z,3.13
2023-03-03T19:23:51.218Z,3.12
2023-03-03T19:26:33.041Z,3.18
2023-03-03T19:29:28.044Z,2.84
2023-03-03T19:32:22.500Z,2.73
2023-03-03T19:35:05.528Z,2.65
2023-03-03T19:37:50.242Z,2.69
2023-03-03T19:40:30.881Z,2.54
2023-03-03T19:43:15.101Z,2.49
2023-03-03T19:46:03.698Z,2.33
2023-03-03T19:48:41.504Z,2.38
2023-03-03T19:51:24.907Z,2.30
2023-03-03T19:54:22.530Z,2.14
2023-03-03T19:56:58.340Z,2.15
2023-03-03T19:59:37.810Z,2.29
2023-03-03T20:02:31.539Z,2.28
2023-03-03T20:05:21.278Z,2.27
2023-03-03T20:08:02.420Z,2.20
2023-03-03T20:10:44.272Z,2.23
2023-03-03T20:13:33.914Z,2.45
2023-03-03T20:16:18.316Z,2.39
2023-03-03T20:19:26.046Z,2.42
2023-03-03T20:22:08.223Z,2.39
2023-03-03T20:25:15.507Z,2.39
2023-03-03T20:28:00.123Z,2.38
2023-03-03T20:30:48.468Z,2.27
2023-03-03T20:33:38.687Z,2.20
2023-03-03T20:36:21.043Z,2.38
2023-03-03T20:39:04.264Z,2.32
2023-03-03T20:41:51.212Z,2.22
2023-03-03T20:44:38.389Z,2.11
2023-03-03T20:47:20.341Z,1.73
2023-03-03T20:50:04.253Z,2.17
2023-03-03T20:52:43.488Z,2.24
2023-03-03T20:55:24.927Z,2.22
2023-03-03T20:58:02.886Z,2.02
2023-03-03T21:00:44.144Z,1.68
2023-03-03T21:03:25.289Z,1.50
2023-03-03T21:06:00.177Z,1.40
2023-03-03T21:08:46.215Z,1.44
2023-03-03T21:11:21.198Z,1.42
2023-03-03T21:13:55.208Z,1.56
2023-03-03T21:16:33.117Z,1.54
2023-03-03T21:19:09.032Z,1.47
2023-03-03T21:21:45.232Z,1.53
2023-03-03T21:24:20.103Z,1.35
2023-03-03T21:26:55.646Z,1.25
2023-03-03T21:29:31.168Z,1.19
2023-03-03T21:32:06.926Z,1.26
2023-03-03T21:34:41.742Z,1.14
2023-03-03T21:37:35.653Z,1.05
2023-03-03T21:40:21.211Z,0.83
2023-03-03T21:42:55.705Z,0.71
2023-03-03T21:45:30.195Z,0.71
2023-03-03T21:48:05.063Z,0.70
2023-03-03T21:50:41.271Z,0.72
2023-03-03T21:53:14.245Z,0.54
2023-03-03T21:55:49.763Z,0.47
2023-03-03T21:58:22.994Z,0.41
2023-03-03T22:00:55.888Z,0.41
2023-03-03T22:03:28.995Z,0.45
2023-03-03T22:06:02.188Z,0.45
2023-03-03T22:08:35.278Z,0.48
2023-03-03T22:11:09.879Z,0.50
2023-03-03T22:13:42.961Z,0.56
2023-03-03T22:16:16.866Z,0.69
2023-03-03T22:18:49.905Z,0.66
2023-03-03T22:21:22.991Z,0.48
2023-03-03T22:23:55.801Z,0.35
2023-03-03T22:26:30.157Z,0.64
2023-03-03T22:29:02.998Z,0.51
2023-03-03T22:31:36.232Z,0.55
2023-03-03T22:34:09.298Z,0.48
2023-03-03T22:36:42.277Z,0.58
2023-03-03T22:39:15.267Z,0.41
2023-03-03T22:41:49.575Z,0.44
2023-03-03T22:44:22.492Z,0.43
2023-03-03T22:46:55.302Z,0.00
2023-03-03T22:49:28.094Z,0.24
2023-03-03T22:52:02.815Z,0.30
2023-03-03T22:54:36.012Z,0.33
2023-03-03T22:57:10.436Z,0.27
2023-03-03T22:59:43.275Z,0.25
2023-03-03T23:02:16.130Z,0.22
2023-03-03T23:04:49.189Z,0.26
2023-03-03T23:07:22.187Z,0.39
2023-03-03T23:09:55.567Z,0.26
2023-03-03T23:12:29.834Z,0.06
2023-03-03T23:15:02.898Z,0.16
2023-03-03T23:17:36.012Z,0.26
2023-03-03T23:20:11.215Z,0.11
2023-03-03T23:22:44.185Z,0.04
2023-03-03T23:25:17.992Z,0.10
2023-03-03T23:27:53.168Z,-0.12
2023-03-03T23:30:26.332Z,-0.18
2023-03-03T23:32:59.283Z,-0.22
2023-03-03T23:35:32.274Z,-0.08
2023-03-03T23:38:06.007Z,0.10
2023-03-03T23:40:39.312Z,-0.01
2023-03-03T23:43:13.630Z,-0.13
2023-03-03T23:45:46.427Z,-0.31
2023-03-03T23:48:20.709Z,-0.49
2023-03-03T23:50:53.878Z,-0.57
2023-03-03T23:53:26.824Z,-0.34
2023-03-03T23:55:59.717Z,-0.07
2023-03-03T23:58:34.062Z,-0.09
